sensor_id;sensor_type;location;lat;lon;timestamp;P1;durP1;ratioP1;P2;durP2;ratioP2
42168;SDS011;27838;43.858;25.974;2023-12-29T00:01:24;36.90;;;19.08;;
42168;SDS011;27838;43.858;25.974;2023-12-29T00:03:55;35.75;;;18.50;;
42168;SDS011;27838;43.858;25.974;2023-12-29T00:06:21;31.38;;;18.67;;
42168;SDS011;27838;43.858;25.974;2023-12-29T00:08:48;33.95;;;19.88;;
42168;SDS011;27838;43.858;25.974;2023-12-29T00:11:20;34.45;;;19.60;;
42168;SDS011;27838;43.858;25.974;2023-12-29T00:13:47;34.88;;;19.33;;
42168;SDS011;27838;43.858;25.974;2023-12-29T00:16:15;34.92;;;18.25;;
42168;SDS011;27838;43.858;25.974;2023-12-29T00:18:41;38.38;;;19.98;;
42168;SDS011;27838;43.858;25.974;2023-12-29T00:21:08;29.90;;;19.00;;
42168;SDS011;27838;43.858;25.974;2023-12-29T00:23:34;30.05;;;18.88;;
42168;SDS011;27838;43.858;25.974;2023-12-29T00:26:01;36.35;;;19.35;;
42168;SDS011;27838;43.858;25.974;2023-12-29T00:28:28;35.75;;;21.02;;
42168;SDS011;27838;43.858;25.974;2023-12-29T00:30:54;32.13;;;18.38;;
42168;SDS011;27838;43.858;25.974;2023-12-29T00:33:21;32.22;;;17.88;;
42168;SDS011;27838;43.858;25.974;2023-12-29T00:35:47;33.88;;;17.83;;
42168;SDS011;27838;43.858;25.974;2023-12-29T00:38:14;33.75;;;19.25;;
42168;SDS011;27838;43.858;25.974;2023-12-29T00:40:40;30.33;;;17.20;;
42168;SDS011;27838;43.858;25.974;2023-12-29T00:43:07;32.58;;;18.15;;
42168;SDS011;27838;43.858;25.974;2023-12-29T00:45:33;31.95;;;17.35;;
42168;SDS011;27838;43.858;25.974;2023-12-29T00:48:01;28.70;;;17.65;;
42168;SDS011;27838;43.858;25.974;2023-12-29T00:50:28;32.20;;;18.45;;
42168;SDS011;27838;43.858;25.974;2023-12-29T00:52:55;39.33;;;19.35;;
42168;SDS011;27838;43.858;25.974;2023-12-29T00:55:21;31.70;;;18.05;;
42168;SDS011;27838;43.858;25.974;2023-12-29T00:57:48;34.13;;;17.52;;
42168;SDS011;27838;43.858;25.974;2023-12-29T01:00:14;30.05;;;16.95;;
42168;SDS011;27838;43.858;25.974;2023-12-29T01:02:41;32.88;;;18.85;;
42168;SDS011;27838;43.858;25.974;2023-12-29T01:05:07;35.00;;;18.77;;
42168;SDS011;27838;43.858;25.974;2023-12-29T01:07:34;30.45;;;17.25;;
42168;SDS011;27838;43.858;25.974;2023-12-29T01:10:01;34.63;;;16.73;;
42168;SDS011;27838;43.858;25.974;2023-12-29T01:12:27;28.80;;;17.05;;
42168;SDS011;27838;43.858;25.974;2023-12-29T01:14:54;34.15;;;17.20;;
42168;SDS011;27838;43.858;25.974;2023-12-29T01:17:20;29.73;;;17.17;;
42168;SDS011;27838;43.858;25.974;2023-12-29T01:19:48;30.08;;;17.35;;
42168;SDS011;27838;43.858;25.974;2023-12-29T01:22:14;31.88;;;16.60;;
42168;SDS011;27838;43.858;25.974;2023-12-29T01:24:41;28.38;;;16.42;;
42168;SDS011;27838;43.858;25.974;2023-12-29T01:27:07;33.15;;;17.60;;
42168;SDS011;27838;43.858;25.974;2023-12-29T01:29:34;31.23;;;17.15;;
42168;SDS011;27838;43.858;25.974;2023-12-29T01:32:00;34.78;;;17.52;;
42168;SDS011;27838;43.858;25.974;2023-12-29T01:34:28;28.10;;;16.60;;
42168;SDS011;27838;43.858;25.974;2023-12-29T01:36:57;28.30;;;16.58;;
42168;SDS011;27838;43.858;25.974;2023-12-29T01:39:24;32.90;;;18.40;;
42168;SDS011;27838;43.858;25.974;2023-12-29T01:41:51;34.53;;;17.95;;
42168;SDS011;27838;43.858;25.974;2023-12-29T01:44:18;30.50;;;17.02;;
42168;SDS011;27838;43.858;25.974;2023-12-29T01:46:45;31.02;;;17.35;;
42168;SDS011;27838;43.858;25.974;2023-12-29T01:49:15;32.25;;;18.17;;
42168;SDS011;27838;43.858;25.974;2023-12-29T01:51:43;28.63;;;16.77;;
42168;SDS011;27838;43.858;25.974;2023-12-29T01:54:11;31.88;;;17.33;;
42168;SDS011;27838;43.858;25.974;2023-12-29T01:56:39;29.45;;;17.08;;
42168;SDS011;27838;43.858;25.974;2023-12-29T01:59:07;32.38;;;17.77;;
42168;SDS011;27838;43.858;25.974;2023-12-29T02:01:34;34.88;;;18.13;;
42168;SDS011;27838;43.858;25.974;2023-12-29T02:04:02;34.08;;;17.65;;
42168;SDS011;27838;43.858;25.974;2023-12-29T02:06:29;36.03;;;18.48;;
42168;SDS011;27838;43.858;25.974;2023-12-29T02:08:58;34.55;;;18.75;;
42168;SDS011;27838;43.858;25.974;2023-12-29T02:11:25;28.58;;;16.33;;
42168;SDS011;27838;43.858;25.974;2023-12-29T02:13:52;31.42;;;18.10;;
42168;SDS011;27838;43.858;25.974;2023-12-29T02:16:21;33.53;;;18.10;;
42168;SDS011;27838;43.858;25.974;2023-12-29T02:18:55;29.38;;;18.60;;
42168;SDS011;27838;43.858;25.974;2023-12-29T02:21:24;36.88;;;17.23;;
42168;SDS011;27838;43.858;25.974;2023-12-29T02:23:51;30.60;;;16.50;;
42168;SDS011;27838;43.858;25.974;2023-12-29T02:26:18;28.98;;;17.05;;
42168;SDS011;27838;43.858;25.974;2023-12-29T02:28:51;32.30;;;18.00;;
42168;SDS011;27838;43.858;25.974;2023-12-29T02:31:24;37.00;;;17.40;;
42168;SDS011;27838;43.858;25.974;2023-12-29T02:33:53;36.92;;;18.30;;
42168;SDS011;27838;43.858;25.974;2023-12-29T02:36:21;32.30;;;16.73;;
42168;SDS011;27838;43.858;25.974;2023-12-29T02:38:48;34.10;;;18.40;;
42168;SDS011;27838;43.858;25.974;2023-12-29T02:41:15;32.20;;;18.15;;
42168;SDS011;27838;43.858;25.974;2023-12-29T02:43:42;34.50;;;18.73;;
42168;SDS011;27838;43.858;25.974;2023-12-29T02:46:08;38.15;;;20.38;;
42168;SDS011;27838;43.858;25.974;2023-12-29T02:48:35;34.50;;;20.40;;
42168;SDS011;27838;43.858;25.974;2023-12-29T02:51:02;40.35;;;22.20;;
42168;SDS011;27838;43.858;25.974;2023-12-29T02:53:28;37.00;;;22.33;;
42168;SDS011;27838;43.858;25.974;2023-12-29T02:55:55;41.38;;;24.65;;
42168;SDS011;27838;43.858;25.974;2023-12-29T02:58:21;42.60;;;23.27;;
42168;SDS011;27838;43.858;25.974;2023-12-29T03:00:48;44.97;;;25.95;;
42168;SDS011;27838;43.858;25.974;2023-12-29T03:03:14;42.90;;;26.98;;
42168;SDS011;27838;43.858;25.974;2023-12-29T03:05:41;44.50;;;26.65;;
42168;SDS011;27838;43.858;25.974;2023-12-29T03:08:07;42.80;;;26.67;;
42168;SDS011;27838;43.858;25.974;2023-12-29T03:10:34;48.42;;;28.50;;
42168;SDS011;27838;43.858;25.974;2023-12-29T03:13:00;42.97;;;25.83;;
42168;SDS011;27838;43.858;25.974;2023-12-29T03:15:29;46.30;;;26.70;;
42168;SDS011;27838;43.858;25.974;2023-12-29T03:17:55;44.88;;;28.10;;
42168;SDS011;27838;43.858;25.974;2023-12-29T03:20:22;44.58;;;25.33;;
42168;SDS011;27838;43.858;25.974;2023-12-29T03:22:48;47.58;;;26.90;;
42168;SDS011;27838;43.858;25.974;2023-12-29T03:25:15;42.00;;;25.77;;
42168;SDS011;27838;43.858;25.974;2023-12-29T03:27:41;38.03;;;24.17;;
42168;SDS011;27838;43.858;25.974;2023-12-29T03:30:08;38.13;;;22.55;;
42168;SDS011;27838;43.858;25.974;2023-12-29T03:32:35;40.05;;;22.83;;
42168;SDS011;27838;43.858;25.974;2023-12-29T03:35:01;35.88;;;22.10;;
42168;SDS011;27838;43.858;25.974;2023-12-29T03:37:28;43.08;;;21.88;;
42168;SDS011;27838;43.858;25.974;2023-12-29T03:39:55;36.15;;;21.23;;
42168;SDS011;27838;43.858;25.974;2023-12-29T03:42:21;34.30;;;19.77;;
42168;SDS011;27838;43.858;25.974;2023-12-29T03:44:48;30.80;;;17.80;;
42168;SDS011;27838;43.858;25.974;2023-12-29T03:47:14;32.85;;;18.15;;
42168;SDS011;27838;43.858;25.974;2023-12-29T03:49:41;31.73;;;18.45;;
42168;SDS011;27838;43.858;25.974;2023-12-29T03:52:07;30.45;;;17.17;;
42168;SDS011;27838;43.858;25.974;2023-12-29T03:54:34;29.23;;;16.92;;
42168;SDS011;27838;43.858;25.974;2023-12-29T03:57:00;32.25;;;16.35;;
42168;SDS011;27838;43.858;25.974;2023-12-29T03:59:27;31.02;;;16.27;;
42168;SDS011;27838;43.858;25.974;2023-12-29T04:01:54;28.50;;;17.20;;
42168;SDS011;27838;43.858;25.974;2023-12-29T04:04:21;30.75;;;17.02;;
42168;SDS011;27838;43.858;25.974;2023-12-29T04:06:47;32.85;;;17.10;;
42168;SDS011;27838;43.858;25.974;2023-12-29T04:09:14;34.03;;;17.73;;
42168;SDS011;27838;43.858;25.974;2023-12-29T04:11:40;28.85;;;15.30;;
42168;SDS011;27838;43.858;25.974;2023-12-29T04:14:07;26.67;;;16.05;;
42168;SDS011;27838;43.858;25.974;2023-12-29T04:16:37;26.63;;;16.20;;
42168;SDS011;27838;43.858;25.974;2023-12-29T04:19:04;29.85;;;16.00;;
42168;SDS011;27838;43.858;25.974;2023-12-29T04:21:31;30.02;;;15.77;;
42168;SDS011;27838;43.858;25.974;2023-12-29T04:23:57;28.45;;;16.25;;
42168;SDS011;27838;43.858;25.974;2023-12-29T04:26:24;26.95;;;15.55;;
42168;SDS011;27838;43.858;25.974;2023-12-29T04:28:50;34.22;;;16.85;;
42168;SDS011;27838;43.858;25.974;2023-12-29T04:31:17;32.70;;;16.25;;
42168;SDS011;27838;43.858;25.974;2023-12-29T04:33:44;29.73;;;14.68;;
42168;SDS011;27838;43.858;25.974;2023-12-29T04:36:11;29.67;;;15.48;;
42168;SDS011;27838;43.858;25.974;2023-12-29T04:38:38;26.35;;;15.23;;
42168;SDS011;27838;43.858;25.974;2023-12-29T04:41:05;29.70;;;15.73;;
42168;SDS011;27838;43.858;25.974;2023-12-29T04:43:32;25.02;;;15.13;;
42168;SDS011;27838;43.858;25.974;2023-12-29T04:45:58;25.95;;;14.95;;
42168;SDS011;27838;43.858;25.974;2023-12-29T04:48:25;26.63;;;15.50;;
42168;SDS011;27838;43.858;25.974;2023-12-29T04:50:52;25.13;;;14.32;;
42168;SDS011;27838;43.858;25.974;2023-12-29T04:53:18;26.00;;;15.00;;
42168;SDS011;27838;43.858;25.974;2023-12-29T04:55:45;25.65;;;13.25;;
42168;SDS011;27838;43.858;25.974;2023-12-29T04:58:11;25.30;;;13.43;;
42168;SDS011;27838;43.858;25.974;2023-12-29T05:00:38;23.77;;;14.25;;
42168;SDS011;27838;43.858;25.974;2023-12-29T05:03:04;24.98;;;14.02;;
42168;SDS011;27838;43.858;25.974;2023-12-29T05:05:31;25.65;;;14.00;;
42168;SDS011;27838;43.858;25.974;2023-12-29T05:07:58;27.50;;;13.38;;
42168;SDS011;27838;43.858;25.974;2023-12-29T05:10:24;26.13;;;14.63;;
42168;SDS011;27838;43.858;25.974;2023-12-29T05:12:51;22.35;;;12.73;;
42168;SDS011;27838;43.858;25.974;2023-12-29T05:15:17;24.50;;;13.18;;
42168;SDS011;27838;43.858;25.974;2023-12-29T05:17:44;21.42;;;11.55;;
42168;SDS011;27838;43.858;25.974;2023-12-29T05:20:10;27.20;;;12.95;;
42168;SDS011;27838;43.858;25.974;2023-12-29T05:22:38;20.80;;;12.57;;
42168;SDS011;27838;43.858;25.974;2023-12-29T05:25:04;25.98;;;12.90;;
42168;SDS011;27838;43.858;25.974;2023-12-29T05:27:31;23.73;;;12.93;;
42168;SDS011;27838;43.858;25.974;2023-12-29T05:29:58;24.65;;;11.55;;
42168;SDS011;27838;43.858;25.974;2023-12-29T05:32:24;25.13;;;12.65;;
42168;SDS011;27838;43.858;25.974;2023-12-29T05:34:51;23.90;;;12.30;;
42168;SDS011;27838;43.858;25.974;2023-12-29T05:37:18;25.85;;;13.73;;
42168;SDS011;27838;43.858;25.974;2023-12-29T05:39:44;22.42;;;12.95;;
42168;SDS011;27838;43.858;25.974;2023-12-29T05:42:11;20.92;;;12.07;;
42168;SDS011;27838;43.858;25.974;2023-12-29T05:44:37;24.77;;;13.63;;
42168;SDS011;27838;43.858;25.974;2023-12-29T05:47:04;26.90;;;13.18;;
42168;SDS011;27838;43.858;25.974;2023-12-29T05:49:31;22.40;;;12.88;;
42168;SDS011;27838;43.858;25.974;2023-12-29T05:52:03;25.60;;;12.80;;
42168;SDS011;27838;43.858;25.974;2023-12-29T05:54:30;22.05;;;12.68;;
42168;SDS011;27838;43.858;25.974;2023-12-29T05:56:56;23.55;;;13.70;;
42168;SDS011;27838;43.858;25.974;2023-12-29T05:59:23;33.00;;;14.35;;
42168;SDS011;27838;43.858;25.974;2023-12-29T06:01:50;29.17;;;14.30;;
42168;SDS011;27838;43.858;25.974;2023-12-29T06:04:16;33.28;;;14.18;;
42168;SDS011;27838;43.858;25.974;2023-12-29T06:06:42;24.17;;;13.25;;
42168;SDS011;27838;43.858;25.974;2023-12-29T06:09:09;24.55;;;13.13;;
42168;SDS011;27838;43.858;25.974;2023-12-29T06:11:36;22.02;;;12.90;;
42168;SDS011;27838;43.858;25.974;2023-12-29T06:14:03;25.27;;;13.30;;
42168;SDS011;27838;43.858;25.974;2023-12-29T06:16:29;23.70;;;13.38;;
42168;SDS011;27838;43.858;25.974;2023-12-29T06:18:56;24.45;;;13.05;;
42168;SDS011;27838;43.858;25.974;2023-12-29T06:21:23;22.05;;;13.10;;
42168;SDS011;27838;43.858;25.974;2023-12-29T06:23:49;19.98;;;12.88;;
42168;SDS011;27838;43.858;25.974;2023-12-29T06:26:16;28.20;;;13.57;;
42168;SDS011;27838;43.858;25.974;2023-12-29T06:28:44;21.98;;;13.52;;
42168;SDS011;27838;43.858;25.974;2023-12-29T06:31:11;24.90;;;13.73;;
42168;SDS011;27838;43.858;25.974;2023-12-29T06:33:41;25.15;;;14.32;;
42168;SDS011;27838;43.858;25.974;2023-12-29T06:36:09;25.25;;;13.18;;
42168;SDS011;27838;43.858;25.974;2023-12-29T06:38:36;23.70;;;13.50;;
42168;SDS011;27838;43.858;25.974;2023-12-29T06:41:03;20.55;;;12.68;;
42168;SDS011;27838;43.858;25.974;2023-12-29T06:43:30;24.35;;;14.02;;
42168;SDS011;27838;43.858;25.974;2023-12-29T06:45:57;22.45;;;13.75;;
42168;SDS011;27838;43.858;25.974;2023-12-29T06:48:23;24.33;;;12.73;;
42168;SDS011;27838;43.858;25.974;2023-12-29T06:50:50;24.08;;;13.23;;
42168;SDS011;27838;43.858;25.974;2023-12-29T06:53:16;23.40;;;14.30;;
42168;SDS011;27838;43.858;25.974;2023-12-29T06:55:43;26.85;;;14.30;;
42168;SDS011;27838;43.858;25.974;2023-12-29T06:58:10;30.50;;;18.20;;
42168;SDS011;27838;43.858;25.974;2023-12-29T07:00:36;34.00;;;17.20;;
42168;SDS011;27838;43.858;25.974;2023-12-29T07:03:03;27.15;;;14.15;;
42168;SDS011;27838;43.858;25.974;2023-12-29T07:05:30;27.17;;;15.05;;
42168;SDS011;27838;43.858;25.974;2023-12-29T07:07:57;35.05;;;18.88;;
42168;SDS011;27838;43.858;25.974;2023-12-29T07:10:23;28.65;;;15.75;;
42168;SDS011;27838;43.858;25.974;2023-12-29T07:12:50;26.65;;;16.30;;
42168;SDS011;27838;43.858;25.974;2023-12-29T07:15:17;33.33;;;15.70;;
42168;SDS011;27838;43.858;25.974;2023-12-29T07:17:43;26.92;;;15.23;;
42168;SDS011;27838;43.858;25.974;2023-12-29T07:20:10;35.63;;;16.25;;
42168;SDS011;27838;43.858;25.974;2023-12-29T07:22:36;26.67;;;14.38;;
42168;SDS011;27838;43.858;25.974;2023-12-29T07:25:03;26.42;;;15.55;;
42168;SDS011;27838;43.858;25.974;2023-12-29T07:27:30;28.40;;;14.75;;
42168;SDS011;27838;43.858;25.974;2023-12-29T07:29:56;31.92;;;15.35;;
42168;SDS011;27838;43.858;25.974;2023-12-29T07:32:23;27.73;;;13.30;;
42168;SDS011;27838;43.858;25.974;2023-12-29T07:34:50;29.25;;;13.80;;
42168;SDS011;27838;43.858;25.974;2023-12-29T07:37:16;24.90;;;13.43;;
42168;SDS011;27838;43.858;25.974;2023-12-29T07:39:44;24.83;;;12.80;;
42168;SDS011;27838;43.858;25.974;2023-12-29T07:42:12;23.73;;;13.30;;
42168;SDS011;27838;43.858;25.974;2023-12-29T07:44:41;26.50;;;12.73;;
42168;SDS011;27838;43.858;25.974;2023-12-29T07:47:08;26.60;;;12.68;;
42168;SDS011;27838;43.858;25.974;2023-12-29T07:49:35;18.95;;;11.90;;
42168;SDS011;27838;43.858;25.974;2023-12-29T07:52:02;21.42;;;10.85;;
42168;SDS011;27838;43.858;25.974;2023-12-29T07:54:28;18.02;;;10.70;;
42168;SDS011;27838;43.858;25.974;2023-12-29T07:56:55;27.63;;;13.43;;
42168;SDS011;27838;43.858;25.974;2023-12-29T07:59:21;17.45;;;11.10;;
42168;SDS011;27838;43.858;25.974;2023-12-29T08:01:48;21.33;;;10.93;;
42168;SDS011;27838;43.858;25.974;2023-12-29T08:04:15;22.88;;;11.00;;
42168;SDS011;27838;43.858;25.974;2023-12-29T08:06:41;26.30;;;14.38;;
42168;SDS011;27838;43.858;25.974;2023-12-29T08:09:08;23.73;;;11.30;;
42168;SDS011;27838;43.858;25.974;2023-12-29T08:11:34;21.70;;;11.45;;
42168;SDS011;27838;43.858;25.974;2023-12-29T08:14:01;25.67;;;12.50;;
42168;SDS011;27838;43.858;25.974;2023-12-29T08:16:27;20.60;;;11.25;;
42168;SDS011;27838;43.858;25.974;2023-12-29T08:18:54;19.95;;;10.95;;
42168;SDS011;27838;43.858;25.974;2023-12-29T08:21:20;17.60;;;11.13;;
42168;SDS011;27838;43.858;25.974;2023-12-29T08:23:48;17.92;;;10.35;;
42168;SDS011;27838;43.858;25.974;2023-12-29T08:26:14;17.60;;;9.60;;
42168;SDS011;27838;43.858;25.974;2023-12-29T08:28:41;20.30;;;9.57;;
42168;SDS011;27838;43.858;25.974;2023-12-29T08:31:08;18.90;;;10.75;;
42168;SDS011;27838;43.858;25.974;2023-12-29T08:33:34;19.13;;;10.40;;
42168;SDS011;27838;43.858;25.974;2023-12-29T08:36:04;17.48;;;9.07;;
42168;SDS011;27838;43.858;25.974;2023-12-29T08:38:31;15.13;;;8.30;;
42168;SDS011;27838;43.858;25.974;2023-12-29T08:40:58;18.85;;;9.38;;
42168;SDS011;27838;43.858;25.974;2023-12-29T08:43:25;17.30;;;10.32;;
42168;SDS011;27838;43.858;25.974;2023-12-29T08:45:52;15.27;;;9.02;;
42168;SDS011;27838;43.858;25.974;2023-12-29T08:48:19;14.27;;;9.32;;
42168;SDS011;27838;43.858;25.974;2023-12-29T08:50:45;18.15;;;9.48;;
42168;SDS011;27838;43.858;25.974;2023-12-29T08:53:12;19.77;;;9.90;;
42168;SDS011;27838;43.858;25.974;2023-12-29T08:55:39;16.85;;;9.77;;
42168;SDS011;27838;43.858;25.974;2023-12-29T08:58:06;16.83;;;9.52;;
42168;SDS011;27838;43.858;25.974;2023-12-29T09:00:32;17.73;;;9.88;;
42168;SDS011;27838;43.858;25.974;2023-12-29T09:02:59;16.23;;;8.45;;
42168;SDS011;27838;43.858;25.974;2023-12-29T09:05:26;11.93;;;7.80;;
42168;SDS011;27838;43.858;25.974;2023-12-29T09:07:52;18.25;;;7.60;;
42168;SDS011;27838;43.858;25.974;2023-12-29T09:10:19;17.10;;;8.82;;
42168;SDS011;27838;43.858;25.974;2023-12-29T09:12:47;13.63;;;8.73;;
42168;SDS011;27838;43.858;25.974;2023-12-29T09:15:14;16.50;;;8.38;;
42168;SDS011;27838;43.858;25.974;2023-12-29T09:17:41;20.23;;;9.50;;
42168;SDS011;27838;43.858;25.974;2023-12-29T09:20:08;19.42;;;9.65;;
42168;SDS011;27838;43.858;25.974;2023-12-29T09:22:35;18.42;;;10.05;;
42168;SDS011;27838;43.858;25.974;2023-12-29T09:25:01;18.33;;;9.32;;
42168;SDS011;27838;43.858;25.974;2023-12-29T09:27:28;22.05;;;10.60;;
42168;SDS011;27838;43.858;25.974;2023-12-29T09:29:55;20.30;;;9.75;;
42168;SDS011;27838;43.858;25.974;2023-12-29T09:32:21;13.38;;;8.80;;
42168;SDS011;27838;43.858;25.974;2023-12-29T09:34:48;20.25;;;9.65;;
42168;SDS011;27838;43.858;25.974;2023-12-29T09:37:14;15.57;;;9.20;;
42168;SDS011;27838;43.858;25.974;2023-12-29T09:39:41;19.67;;;10.60;;
42168;SDS011;27838;43.858;25.974;2023-12-29T09:42:07;18.02;;;9.38;;
42168;SDS011;27838;43.858;25.974;2023-12-29T09:44:39;13.30;;;8.70;;
42168;SDS011;27838;43.858;25.974;2023-12-29T09:47:07;27.10;;;9.80;;
42168;SDS011;27838;43.858;25.974;2023-12-29T09:49:37;17.90;;;10.73;;
42168;SDS011;27838;43.858;25.974;2023-12-29T09:52:09;20.88;;;10.73;;
42168;SDS011;27838;43.858;25.974;2023-12-29T09:54:38;18.90;;;11.10;;
42168;SDS011;27838;43.858;25.974;2023-12-29T09:57:06;17.88;;;8.93;;
42168;SDS011;27838;43.858;25.974;2023-12-29T09:59:35;18.17;;;9.05;;
42168;SDS011;27838;43.858;25.974;2023-12-29T10:02:03;16.23;;;8.73;;
42168;SDS011;27838;43.858;25.974;2023-12-29T10:04:31;20.40;;;10.10;;
42168;SDS011;27838;43.858;25.974;2023-12-29T10:06:59;17.70;;;8.52;;
42168;SDS011;27838;43.858;25.974;2023-12-29T10:09:30;14.82;;;8.07;;
42168;SDS011;27838;43.858;25.974;2023-12-29T10:12:01;19.85;;;7.72;;
42168;SDS011;27838;43.858;25.974;2023-12-29T10:14:46;15.52;;;8.40;;
42168;SDS011;27838;43.858;25.974;2023-12-29T10:20:03;12.95;;;8.63;;
42168;SDS011;27838;43.858;25.974;2023-12-29T10:23:10;14.40;;;7.93;;
42168;SDS011;27838;43.858;25.974;2023-12-29T10:25:38;11.85;;;8.13;;
42168;SDS011;27838;43.858;25.974;2023-12-29T10:28:06;11.63;;;7.82;;
42168;SDS011;27838;43.858;25.974;2023-12-29T10:30:32;20.25;;;9.60;;
42168;SDS011;27838;43.858;25.974;2023-12-29T10:32:59;14.65;;;8.60;;
42168;SDS011;27838;43.858;25.974;2023-12-29T10:35:29;15.75;;;8.48;;
42168;SDS011;27838;43.858;25.974;2023-12-29T10:38:09;16.10;;;8.75;;
42168;SDS011;27838;43.858;25.974;2023-12-29T10:40:36;19.35;;;8.85;;
42168;SDS011;27838;43.858;25.974;2023-12-29T10:43:03;17.40;;;9.98;;
42168;SDS011;27838;43.858;25.974;2023-12-29T10:45:32;15.63;;;9.88;;
42168;SDS011;27838;43.858;25.974;2023-12-29T10:47:59;17.35;;;12.45;;
42168;SDS011;27838;43.858;25.974;2023-12-29T10:50:26;29.13;;;17.98;;
42168;SDS011;27838;43.858;25.974;2023-12-29T10:53:15;25.02;;;13.63;;
42168;SDS011;27838;43.858;25.974;2023-12-29T10:55:43;16.80;;;10.40;;
42168;SDS011;27838;43.858;25.974;2023-12-29T10:58:09;21.10;;;11.82;;
42168;SDS011;27838;43.858;25.974;2023-12-29T11:00:36;17.90;;;9.65;;
42168;SDS011;27838;43.858;25.974;2023-12-29T11:03:03;22.15;;;12.13;;
42168;SDS011;27838;43.858;25.974;2023-12-29T11:05:29;38.65;;;22.80;;
42168;SDS011;27838;43.858;25.974;2023-12-29T11:07:56;22.65;;;14.20;;
42168;SDS011;27838;43.858;25.974;2023-12-29T11:10:23;23.38;;;12.88;;
42168;SDS011;27838;43.858;25.974;2023-12-29T11:12:51;25.15;;;12.80;;
42168;SDS011;27838;43.858;25.974;2023-12-29T11:15:18;21.15;;;10.27;;
42168;SDS011;27838;43.858;25.974;2023-12-29T11:17:45;17.92;;;9.35;;
42168;SDS011;27838;43.858;25.974;2023-12-29T11:20:16;16.88;;;10.45;;
42168;SDS011;27838;43.858;25.974;2023-12-29T11:22:45;17.45;;;10.80;;
42168;SDS011;27838;43.858;25.974;2023-12-29T11:25:13;16.08;;;9.75;;
42168;SDS011;27838;43.858;25.974;2023-12-29T11:27:40;19.05;;;10.23;;
42168;SDS011;27838;43.858;25.974;2023-12-29T11:30:08;13.35;;;8.55;;
42168;SDS011;27838;43.858;25.974;2023-12-29T11:35:27;14.40;;;8.90;;
42168;SDS011;27838;43.858;25.974;2023-12-29T11:38:11;14.18;;;8.68;;
42168;SDS011;27838;43.858;25.974;2023-12-29T11:41:56;16.05;;;7.55;;
42168;SDS011;27838;43.858;25.974;2023-12-29T11:43:57;13.32;;;6.97;;
42168;SDS011;27838;43.858;25.974;2023-12-29T11:46:37;12.73;;;7.22;;
42168;SDS011;27838;43.858;25.974;2023-12-29T11:49:08;13.98;;;8.50;;
42168;SDS011;27838;43.858;25.974;2023-12-29T11:51:41;14.30;;;7.85;;
42168;SDS011;27838;43.858;25.974;2023-12-29T11:54:09;14.48;;;7.43;;
42168;SDS011;27838;43.858;25.974;2023-12-29T11:56:37;10.93;;;7.05;;
42168;SDS011;27838;43.858;25.974;2023-12-29T11:59:11;11.40;;;6.90;;
42168;SDS011;27838;43.858;25.974;2023-12-29T12:01:42;15.80;;;7.43;;
42168;SDS011;27838;43.858;25.974;2023-12-29T12:07:06;10.40;;;7.20;;
42168;SDS011;27838;43.858;25.974;2023-12-29T12:09:48;13.77;;;7.32;;
42168;SDS011;27838;43.858;25.974;2023-12-29T12:12:38;10.98;;;6.18;;
42168;SDS011;27838;43.858;25.974;2023-12-29T12:18:10;15.05;;;6.75;;
42168;SDS011;27838;43.858;25.974;2023-12-29T12:20:38;10.60;;;5.57;;
42168;SDS011;27838;43.858;25.974;2023-12-29T12:23:07;8.63;;;5.60;;
42168;SDS011;27838;43.858;25.974;2023-12-29T12:25:46;16.85;;;5.68;;
42168;SDS011;27838;43.858;25.974;2023-12-29T12:28:15;12.27;;;6.10;;
42168;SDS011;27838;43.858;25.974;2023-12-29T12:30:42;11.77;;;5.70;;
42168;SDS011;27838;43.858;25.974;2023-12-29T12:33:09;15.00;;;6.03;;
42168;SDS011;27838;43.858;25.974;2023-12-29T12:35:38;11.10;;;6.05;;
42168;SDS011;27838;43.858;25.974;2023-12-29T12:40:34;8.23;;;5.13;;
42168;SDS011;27838;43.858;25.974;2023-12-29T12:43:01;9.82;;;5.43;;
42168;SDS011;27838;43.858;25.974;2023-12-29T12:45:28;10.20;;;5.32;;
42168;SDS011;27838;43.858;25.974;2023-12-29T12:48:00;12.07;;;4.97;;
42168;SDS011;27838;43.858;25.974;2023-12-29T12:50:42;12.40;;;5.32;;
42168;SDS011;27838;43.858;25.974;2023-12-29T12:53:12;9.15;;;4.95;;
42168;SDS011;27838;43.858;25.974;2023-12-29T12:55:45;12.50;;;4.75;;
42168;SDS011;27838;43.858;25.974;2023-12-29T12:58:14;7.72;;;4.78;;
42168;SDS011;27838;43.858;25.974;2023-12-29T13:00:42;6.90;;;4.75;;
42168;SDS011;27838;43.858;25.974;2023-12-29T13:03:08;7.20;;;4.75;;
42168;SDS011;27838;43.858;25.974;2023-12-29T13:05:35;8.32;;;4.63;;
42168;SDS011;27838;43.858;25.974;2023-12-29T13:08:03;8.98;;;4.45;;
42168;SDS011;27838;43.858;25.974;2023-12-29T13:10:30;9.70;;;6.00;;
42168;SDS011;27838;43.858;25.974;2023-12-29T13:12:57;9.95;;;5.15;;
42168;SDS011;27838;43.858;25.974;2023-12-29T13:15:24;9.00;;;5.00;;
42168;SDS011;27838;43.858;25.974;2023-12-29T13:17:51;9.70;;;5.38;;
42168;SDS011;27838;43.858;25.974;2023-12-29T13:20:18;9.38;;;5.18;;
42168;SDS011;27838;43.858;25.974;2023-12-29T13:22:50;9.73;;;5.07;;
42168;SDS011;27838;43.858;25.974;2023-12-29T13:25:24;10.02;;;5.35;;
42168;SDS011;27838;43.858;25.974;2023-12-29T13:27:52;9.27;;;5.18;;
42168;SDS011;27838;43.858;25.974;2023-12-29T13:30:20;13.35;;;6.07;;
42168;SDS011;27838;43.858;25.974;2023-12-29T13:32:48;10.73;;;6.03;;
42168;SDS011;27838;43.858;25.974;2023-12-29T13:35:30;9.25;;;5.43;;
42168;SDS011;27838;43.858;25.974;2023-12-29T13:38:07;7.90;;;5.07;;
42168;SDS011;27838;43.858;25.974;2023-12-29T13:41:01;7.38;;;4.50;;
42168;SDS011;27838;43.858;25.974;2023-12-29T13:43:33;6.13;;;4.80;;
42168;SDS011;27838;43.858;25.974;2023-12-29T13:46:02;7.07;;;4.47;;
42168;SDS011;27838;43.858;25.974;2023-12-29T13:48:29;9.63;;;4.57;;
42168;SDS011;27838;43.858;25.974;2023-12-29T13:50:58;8.85;;;4.82;;
42168;SDS011;27838;43.858;25.974;2023-12-29T13:53:25;8.30;;;5.07;;
42168;SDS011;27838;43.858;25.974;2023-12-29T13:55:52;10.25;;;4.68;;
42168;SDS011;27838;43.858;25.974;2023-12-29T13:58:18;9.10;;;5.60;;
42168;SDS011;27838;43.858;25.974;2023-12-29T14:00:45;7.78;;;5.00;;
42168;SDS011;27838;43.858;25.974;2023-12-29T14:03:22;10.05;;;5.25;;
42168;SDS011;27838;43.858;25.974;2023-12-29T14:05:56;8.98;;;5.45;;
42168;SDS011;27838;43.858;25.974;2023-12-29T14:08:27;8.55;;;5.47;;
42168;SDS011;27838;43.858;25.974;2023-12-29T14:11:11;9.77;;;5.25;;
42168;SDS011;27838;43.858;25.974;2023-12-29T14:13:44;11.00;;;5.93;;
42168;SDS011;27838;43.858;25.974;2023-12-29T14:16:13;12.50;;;5.45;;
42168;SDS011;27838;43.858;25.974;2023-12-29T14:21:28;13.38;;;6.13;;
42168;SDS011;27838;43.858;25.974;2023-12-29T14:29:22;12.15;;;7.18;;
42168;SDS011;27838;43.858;25.974;2023-12-29T14:31:49;17.73;;;6.30;;
42168;SDS011;27838;43.858;25.974;2023-12-29T14:34:17;12.02;;;6.57;;
42168;SDS011;27838;43.858;25.974;2023-12-29T14:36:44;14.73;;;5.82;;
42168;SDS011;27838;43.858;25.974;2023-12-29T14:39:11;14.45;;;5.97;;
42168;SDS011;27838;43.858;25.974;2023-12-29T14:41:37;12.20;;;6.05;;